Time;durP1;ratioP1;P1;durP2;ratioP2;P2;SDS_P1;SDS_P2;PMS_P1;PMS_P2;Temp;Humidity;BMP_temperature;BMP_pressure;BME280_temperature;BME280_humidity;BME280_pressure;Samples;Min_cycle;Max_cycle;Signal;HPM_P1;HPM_P2
2021/12/06 00:00:29;;;;;;;108.45;38.75;;;;;;;;;;4975058;28;21710;-73
2021/12/06 00:02:56;;;;;;;107.72;37.13;;;;;;;;;;4974389;28;20022;-73
2021/12/06 00:05:24;;;;;;;104.50;37.13;;;;;;;;;;4993031;28;20474;-73
2021/12/06 00:07:50;;;;;;;113.28;38.65;;;;;;;;;;4967643;28;20238;-73
2021/12/06 00:10:16;;;;;;;116.45;37.70;;;;;;;;;;4975548;28;20054;-73
2021/12/06 00:12:43;;;;;;;117.20;37.10;;;;;;;;;;4974393;28;20085;-73
2021/12/06 00:15:09;;;;;;;143.80;40.65;;;;;;;;;;4969983;28;20050;-73
2021/12/06 00:17:35;;;;;;;134.23;40.60;;;;;;;;;;4962940;28;20041;-73
2021/12/06 00:20:03;;;;;;;141.07;42.28;;;;;;;;;;4975562;28;20122;-73
2021/12/06 00:22:29;;;;;;;133.25;41.53;;;;;;;;;;4974647;28;20027;-73
2021/12/06 00:24:56;;;;;;;136.65;43.85;;;;;;;;;;4973395;28;20031;-72
2021/12/06 00:27:22;;;;;;;147.02;47.75;;;;;;;;;;4973588;28;20126;-73
2021/12/06 00:29:48;;;;;;;147.13;47.95;;;;;;;;;;4973299;28;20038;-73
2021/12/06 00:32:15;;;;;;;155.85;48.53;;;;;;;;;;4974842;28;20026;-74
2021/12/06 00:34:41;;;;;;;158.63;50.38;;;;;;;;;;4973911;28;20101;-73
2021/12/06 00:39:56;;;;;;;156.60;49.03;;;;;;;;;;4972599;28;20200;-73
2021/12/06 00:42:24;;;;;;;165.77;49.40;;;;;;;;;;4972560;28;20038;-73
2021/12/06 00:44:50;;;;;;;157.45;48.83;;;;;;;;;;4976163;28;20093;-74
2021/12/06 00:47:16;;;;;;;142.32;46.83;;;;;;;;;;4972873;28;20031;-74
2021/12/06 00:49:45;;;;;;;154.90;47.92;;;;;;;;;;4974849;28;20035;-73
2021/12/06 00:52:11;;;;;;;152.68;47.75;;;;;;;;;;4973456;28;20035;-73
2021/12/06 00:54:37;;;;;;;149.88;48.60;;;;;;;;;;4969937;28;20026;-72
2021/12/06 00:57:09;;;;;;;151.60;48.65;;;;;;;;;;4989011;28;20034;-74
2021/12/06 00:59:35;;;;;;;153.32;49.65;;;;;;;;;;4992046;28;20034;-73
2021/12/06 01:02:01;;;;;;;164.77;52.33;;;;;;;;;;4976374;28;20039;-73
2021/12/06 01:04:29;;;;;;;165.57;53.25;;;;;;;;;;4992764;28;20031;-73
2021/12/06 01:06:58;;;;;;;172.63;52.72;;;;;;;;;;4974943;28;20035;-73
2021/12/06 01:09:24;;;;;;;161.40;50.88;;;;;;;;;;4981919;28;20050;-73
2021/12/06 01:11:50;;;;;;;160.50;51.97;;;;;;;;;;4971785;28;20023;-73
2021/12/06 01:14:16;;;;;;;168.45;51.53;;;;;;;;;;4977750;28;20508;-74
2021/12/06 01:16:42;;;;;;;160.75;51.03;;;;;;;;;;4993772;28;20034;-73
2021/12/06 01:19:08;;;;;;;168.30;50.85;;;;;;;;;;4994203;28;20045;-73
2021/12/06 01:22:02;;;;;;;163.57;52.97;;;;;;;;;;4976351;28;20076;-73
2021/12/06 01:24:36;;;;;;;163.82;52.30;;;;;;;;;;4980160;28;20057;-74
2021/12/06 01:40:05;;;;;;;149.40;49.58;;;;;;;;;;4973104;28;20061;-72
2021/12/06 01:42:31;;;;;;;164.10;51.53;;;;;;;;;;4975003;28;20027;-72
2021/12/06 01:44:58;;;;;;;157.10;48.72;;;;;;;;;;4988221;28;20488;-72
2021/12/06 01:47:32;;;;;;;149.45;47.30;;;;;;;;;;4979744;28;20452;-73
2021/12/06 01:50:02;;;;;;;143.30;46.88;;;;;;;;;;4980726;28;20033;-73
2021/12/06 01:52:31;;;;;;;150.32;46.83;;;;;;;;;;4976179;28;20073;-73
2021/12/06 01:54:57;;;;;;;135.32;46.22;;;;;;;;;;4968995;28;20027;-73
2021/12/06 01:57:24;;;;;;;149.70;47.58;;;;;;;;;;4970940;28;20148;-73
2021/12/06 01:59:50;;;;;;;149.18;48.13;;;;;;;;;;4969350;28;20062;-73
2021/12/06 02:02:17;;;;;;;155.13;47.05;;;;;;;;;;4966289;28;20096;-74
2021/12/06 02:04:44;;;;;;;139.57;47.03;;;;;;;;;;4965966;28;20054;-73
2021/12/06 02:07:15;;;;;;;159.02;48.08;;;;;;;;;;4991595;28;20038;-73
2021/12/06 02:09:41;;;;;;;150.32;46.72;;;;;;;;;;4998151;28;20052;-73
2021/12/06 02:12:08;;;;;;;149.45;48.78;;;;;;;;;;4980586;28;20026;-73
2021/12/06 02:17:19;;;;;;;155.27;47.83;;;;;;;;;;4975450;28;20399;-73
2021/12/06 02:19:50;;;;;;;146.77;46.95;;;;;;;;;;4976076;28;20117;-73
2021/12/06 02:22:21;;;;;;;154.68;47.42;;;;;;;;;;4978497;28;20178;-73
2021/12/06 02:24:47;;;;;;;141.00;46.47;;;;;;;;;;4977443;28;20439;-74
2021/12/06 02:27:14;;;;;;;159.65;50.15;;;;;;;;;;4972003;28;20129;-73
2021/12/06 02:29:41;;;;;;;137.82;46.53;;;;;;;;;;4975699;28;20121;-73
2021/12/06 02:32:10;;;;;;;156.18;49.05;;;;;;;;;;4977150;28;20019;-73
2021/12/06 02:34:41;;;;;;;165.68;50.13;;;;;;;;;;4972963;28;20031;-73
2021/12/06 02:37:09;;;;;;;140.80;45.53;;;;;;;;;;4973237;28;20041;-73
2021/12/06 02:39:36;;;;;;;151.00;48.65;;;;;;;;;;4978358;28;20042;-73
2021/12/06 02:42:03;;;;;;;135.88;48.20;;;;;;;;;;4961306;28;20117;-73
2021/12/06 02:44:29;;;;;;;142.27;49.17;;;;;;;;;;4981851;28;20081;-73
2021/12/06 02:46:55;;;;;;;141.88;47.67;;;;;;;;;;4976783;28;20041;-74
2021/12/06 02:49:22;;;;;;;154.70;50.60;;;;;;;;;;4974340;28;20546;-73
2021/12/06 02:51:49;;;;;;;144.90;48.58;;;;;;;;;;4994890;28;20081;-73
2021/12/06 02:54:15;;;;;;;148.77;47.90;;;;;;;;;;4977975;28;20432;-73
2021/12/06 02:56:55;;;;;;;147.18;46.10;;;;;;;;;;4979726;28;20050;-74
2021/12/06 02:59:22;;;;;;;144.10;47.70;;;;;;;;;;4988167;28;20121;-73
2021/12/06 03:01:51;;;;;;;138.48;46.22;;;;;;;;;;4976588;28;20019;-73
2021/12/06 03:04:17;;;;;;;150.43;48.42;;;;;;;;;;4977534;28;20034;-73
2021/12/06 03:06:47;;;;;;;139.15;46.47;;;;;;;;;;4976523;28;20109;-73
2021/12/06 03:09:15;;;;;;;150.40;48.63;;;;;;;;;;4993344;28;20500;-73
2021/12/06 03:11:52;;;;;;;150.98;47.53;;;;;;;;;;4974993;28;20073;-73
2021/12/06 03:14:22;;;;;;;159.43;50.38;;;;;;;;;;4976809;28;20476;-73
2021/12/06 03:16:48;;;;;;;143.20;48.03;;;;;;;;;;4973825;28;20027;-73
2021/12/06 03:19:15;;;;;;;138.65;44.72;;;;;;;;;;4992804;28;20409;-74
2021/12/06 03:21:41;;;;;;;140.18;48.50;;;;;;;;;;4980162;28;20108;-73
2021/12/06 03:24:08;;;;;;;145.07;47.00;;;;;;;;;;4976471;28;20445;-73
2021/12/06 03:26:34;;;;;;;140.88;45.58;;;;;;;;;;4976657;28;20067;-72
2021/12/06 03:29:01;;;;;;;133.20;46.22;;;;;;;;;;4977609;28;20039;-73
2021/12/06 03:31:28;;;;;;;145.20;48.53;;;;;;;;;;4982214;28;20023;-73
2021/12/06 03:33:54;;;;;;;146.60;47.15;;;;;;;;;;4975699;28;20038;-74
2021/12/06 03:36:21;;;;;;;147.82;48.90;;;;;;;;;;4976803;28;20089;-73
2021/12/06 03:38:48;;;;;;;142.18;46.72;;;;;;;;;;4975209;28;20040;-73
2021/12/06 03:41:15;;;;;;;146.27;47.30;;;;;;;;;;4976641;28;21915;-73
2021/12/06 03:43:41;;;;;;;147.55;47.80;;;;;;;;;;4991291;28;20035;-73
2021/12/06 03:46:08;;;;;;;151.45;47.33;;;;;;;;;;4978020;28;20411;-74
2021/12/06 03:48:34;;;;;;;150.80;48.00;;;;;;;;;;4976778;28;20054;-73
2021/12/06 03:51:01;;;;;;;159.13;48.30;;;;;;;;;;4973933;28;20082;-74
2021/12/06 03:53:28;;;;;;;174.07;50.85;;;;;;;;;;4992314;28;20035;-74
2021/12/06 03:55:54;;;;;;;167.50;48.97;;;;;;;;;;4978640;28;20026;-74
2021/12/06 03:58:21;;;;;;;171.43;51.55;;;;;;;;;;4990906;28;20080;-74
2021/12/06 04:00:47;;;;;;;178.70;49.17;;;;;;;;;;4976917;28;20122;-73
2021/12/06 04:03:13;;;;;;;193.10;49.33;;;;;;;;;;4971246;28;20031;-73
2021/12/06 04:05:39;;;;;;;190.75;50.40;;;;;;;;;;4972772;28;20034;-74
2021/12/06 04:08:05;;;;;;;193.35;49.45;;;;;;;;;;4971683;28;20444;-74
2021/12/06 04:10:32;;;;;;;194.43;50.92;;;;;;;;;;4972756;28;20041;-74
2021/12/06 04:12:59;;;;;;;200.18;52.17;;;;;;;;;;4996403;28;20034;-74
2021/12/06 04:15:28;;;;;;;180.52;48.92;;;;;;;;;;4977789;28;20030;-74
2021/12/06 04:17:54;;;;;;;207.48;51.10;;;;;;;;;;4976275;28;20038;-73
2021/12/06 04:20:20;;;;;;;206.25;51.83;;;;;;;;;;4972384;28;20035;-73
2021/12/06 04:22:46;;;;;;;188.40;50.80;;;;;;;;;;4979139;28;20066;-73
2021/12/06 04:25:15;;;;;;;205.65;49.83;;;;;;;;;;4975615;28;20136;-73
2021/12/06 04:27:41;;;;;;;195.85;49.47;;;;;;;;;;4990409;28;20035;-73
2021/12/06 04:30:09;;;;;;;219.13;51.35;;;;;;;;;;4975035;28;20039;-72
2021/12/06 04:32:35;;;;;;;225.98;53.13;;;;;;;;;;4968436;28;20115;-73
2021/12/06 04:35:01;;;;;;;241.20;52.20;;;;;;;;;;4978540;28;20409;-73
2021/12/06 04:37:27;;;;;;;232.95;51.90;;;;;;;;;;4973853;28;20041;-73
2021/12/06 04:39:53;;;;;;;224.98;52.53;;;;;;;;;;4971621;28;20626;-73
2021/12/06 04:42:20;;;;;;;228.52;50.92;;;;;;;;;;4974435;28;20443;-74
2021/12/06 04:44:47;;;;;;;238.07;53.20;;;;;;;;;;4977985;28;20039;-74
2021/12/06 04:47:13;;;;;;;225.85;52.13;;;;;;;;;;4980259;28;20030;-73
2021/12/06 04:49:39;;;;;;;233.80;54.30;;;;;;;;;;4979399;28;20147;-74
2021/12/06 04:52:07;;;;;;;220.35;53.03;;;;;;;;;;4978949;28;20034;-73
2021/12/06 04:54:38;;;;;;;227.05;54.03;;;;;;;;;;4978134;28;20039;-73
2021/12/06 04:57:04;;;;;;;;;;;;;;;;;;4977065;28;20106;-73
2021/12/06 04:59:38;;;;;;;203.65;51.13;;;;;;;;;;4981471;28;19914;-74
2021/12/06 05:02:06;;;;;;;233.25;55.58;;;;;;;;;;4994004;28;20046;-73
2021/12/06 05:04:36;;;;;;;200.15;53.33;;;;;;;;;;4979775;28;20491;-73
2021/12/06 05:07:05;;;;;;;223.27;55.50;;;;;;;;;;4977636;28;20035;-73
2021/12/06 05:09:34;;;;;;;222.23;56.30;;;;;;;;;;4990872;28;20076;-74
2021/12/06 05:12:00;;;;;;;241.43;56.92;;;;;;;;;;4980109;28;20041;-73
2021/12/06 05:14:29;;;;;;;208.45;55.78;;;;;;;;;;4980332;28;20141;-74
2021/12/06 05:16:55;;;;;;;208.45;53.40;;;;;;;;;;4973653;28;20477;-72
2021/12/06 05:19:22;;;;;;;196.48;52.63;;;;;;;;;;4996125;28;20078;-74
2021/12/06 05:21:49;;;;;;;211.13;52.17;;;;;;;;;;4981071;28;20038;-72
2021/12/06 05:24:17;;;;;;;217.60;52.03;;;;;;;;;;4980281;28;20073;-73
2021/12/06 05:26:46;;;;;;;200.88;54.55;;;;;;;;;;4977124;28;20085;-73
2021/12/06 05:29:13;;;;;;;193.60;51.85;;;;;;;;;;4978092;28;20037;-73
2021/12/06 05:31:41;;;;;;;196.38;53.20;;;;;;;;;;4993271;28;20034;-73
2021/12/06 05:34:13;;;;;;;185.05;50.15;;;;;;;;;;4983043;28;20053;-73
2021/12/06 05:36:39;;;;;;;186.45;49.55;;;;;;;;;;4980909;28;20034;-74
2021/12/06 05:39:06;;;;;;;181.23;48.72;;;;;;;;;;4978602;28;20030;-74
2021/12/06 05:41:35;;;;;;;171.70;48.67;;;;;;;;;;4991414;28;20092;-74
2021/12/06 05:44:02;;;;;;;188.98;51.33;;;;;;;;;;4989339;28;20046;-74
2021/12/06 05:46:28;;;;;;;178.13;49.05;;;;;;;;;;4980105;28;20109;-73
2021/12/06 05:48:54;;;;;;;179.25;50.10;;;;;;;;;;4973023;28;20030;-74
2021/12/06 05:51:20;;;;;;;172.30;51.42;;;;;;;;;;4985229;28;20042;-73
2021/12/06 05:53:46;;;;;;;160.70;47.83;;;;;;;;;;4979645;28;20042;-75
2021/12/06 05:56:12;;;;;;;166.55;50.25;;;;;;;;;;4982810;28;20484;-72
2021/12/06 05:58:39;;;;;;;187.30;55.22;;;;;;;;;;4976963;28;20079;-73
2021/12/06 06:01:05;;;;;;;167.75;47.45;;;;;;;;;;4976842;28;20043;-72
2021/12/06 06:03:31;;;;;;;178.85;50.08;;;;;;;;;;4983103;28;20112;-73
2021/12/06 06:05:57;;;;;;;180.77;52.35;;;;;;;;;;4980649;28;20030;-73
2021/12/06 06:08:25;;;;;;;169.70;49.70;;;;;;;;;;4982107;28;20559;-74
2021/12/06 06:10:51;;;;;;;163.10;49.67;;;;;;;;;;4976347;28;20033;-73
2021/12/06 06:13:18;;;;;;;159.73;50.03;;;;;;;;;;4993742;28;20487;-73
2021/12/06 06:15:44;;;;;;;156.85;49.50;;;;;;;;;;4973790;28;20161;-73
2021/12/06 06:18:10;;;;;;;157.18;49.72;;;;;;;;;;4978063;28;20097;-73
2021/12/06 06:20:42;;;;;;;148.90;49.15;;;;;;;;;;4978538;28;20026;-73
2021/12/06 06:23:08;;;;;;;147.95;49.47;;;;;;;;;;4981553;28;20045;-73
2021/12/06 06:25:35;;;;;;;155.55;50.15;;;;;;;;;;4978392;28;20034;-73
2021/12/06 06:28:02;;;;;;;151.18;49.20;;;;;;;;;;4970939;28;20061;-73
2021/12/06 06:30:28;;;;;;;145.73;48.60;;;;;;;;;;4977018;28;20078;-73
2021/12/06 06:32:54;;;;;;;162.65;52.15;;;;;;;;;;4977551;28;20026;-74
2021/12/06 06:35:20;;;;;;;150.35;50.85;;;;;;;;;;4968893;28;20042;-72
2021/12/06 06:37:46;;;;;;;157.15;52.67;;;;;;;;;;4978631;28;20027;-73
2021/12/06 06:40:13;;;;;;;144.27;51.38;;;;;;;;;;4979735;28;20522;-72
2021/12/06 06:42:39;;;;;;;149.38;49.50;;;;;;;;;;4976224;28;20124;-73
2021/12/06 06:45:06;;;;;;;150.32;49.97;;;;;;;;;;5002124;28;20046;-74
2021/12/06 06:47:32;;;;;;;141.93;49.58;;;;;;;;;;4976266;28;20034;-74
2021/12/06 06:49:58;;;;;;;148.23;51.95;;;;;;;;;;4983576;28;20398;-74
2021/12/06 06:52:24;;;;;;;130.63;47.70;;;;;;;;;;4972901;28;20117;-74
2021/12/06 06:54:51;;;;;;;136.30;49.60;;;;;;;;;;4979272;28;20126;-74
2021/12/06 06:57:17;;;;;;;139.43;52.45;;;;;;;;;;4975877;28;20045;-74
2021/12/06 06:59:45;;;;;;;138.27;51.13;;;;;;;;;;4974042;28;20039;-73
2021/12/06 07:02:12;;;;;;;134.30;48.75;;;;;;;;;;4972685;28;20037;-74
2021/12/06 07:04:38;;;;;;;138.93;49.15;;;;;;;;;;4977555;28;20492;-74
2021/12/06 07:07:04;;;;;;;138.80;50.80;;;;;;;;;;4975945;28;20515;-73
2021/12/06 07:09:30;;;;;;;137.57;50.63;;;;;;;;;;4968865;28;20105;-72
2021/12/06 07:11:58;;;;;;;131.95;49.03;;;;;;;;;;4974007;28;20520;-74
2021/12/06 07:14:24;;;;;;;133.43;50.22;;;;;;;;;;4971746;28;20018;-73
2021/12/06 07:16:51;;;;;;;122.20;47.50;;;;;;;;;;4992788;28;20026;-73
2021/12/06 07:19:17;;;;;;;132.65;50.35;;;;;;;;;;4968979;28;20041;-73
2021/12/06 07:21:43;;;;;;;127.45;47.67;;;;;;;;;;4977846;28;20085;-73
2021/12/06 07:24:09;;;;;;;121.15;46.70;;;;;;;;;;4978176;28;20037;-74
2021/12/06 07:26:35;;;;;;;118.50;46.22;;;;;;;;;;4981206;28;20070;-73
2021/12/06 07:29:01;;;;;;;113.65;46.67;;;;;;;;;;4971415;28;20030;-73
2021/12/06 07:31:28;;;;;;;126.30;48.28;;;;;;;;;;4972131;28;20050;-73
2021/12/06 07:33:54;;;;;;;116.82;48.00;;;;;;;;;;4967560;28;20039;-73
2021/12/06 07:36:21;;;;;;;130.40;48.92;;;;;;;;;;4975544;28;20027;-72
2021/12/06 07:38:48;;;;;;;118.93;46.47;;;;;;;;;;4973325;28;20113;-72
2021/12/06 07:41:16;;;;;;;132.63;49.55;;;;;;;;;;4970446;28;20036;-72
2021/12/06 07:43:43;;;;;;;125.47;48.70;;;;;;;;;;4978614;28;20023;-72
2021/12/06 07:46:09;;;;;;;124.38;48.78;;;;;;;;;;4975127;28;20023;-74
2021/12/06 07:48:36;;;;;;;126.13;49.53;;;;;;;;;;4973265;28;20118;-73
2021/12/06 07:51:05;;;;;;;129.82;48.28;;;;;;;;;;4971049;28;20027;-73
2021/12/06 07:53:32;;;;;;;124.13;50.67;;;;;;;;;;4989753;28;20562;-73
2021/12/06 07:55:59;;;;;;;129.43;48.65;;;;;;;;;;4980922;28;20114;-73
2021/12/06 07:58:26;;;;;;;125.72;48.97;;;;;;;;;;4969972;28;20146;-73
2021/12/06 08:00:52;;;;;;;123.82;50.20;;;;;;;;;;4985684;28;20063;-73
2021/12/06 08:03:22;;;;;;;122.90;48.75;;;;;;;;;;4980291;28;20035;-72
2021/12/06 08:05:48;;;;;;;118.28;48.67;;;;;;;;;;4964875;28;20031;-72
2021/12/06 08:08:14;;;;;;;124.75;49.53;;;;;;;;;;4983082;28;20030;-73
2021/12/06 08:10:44;;;;;;;119.28;48.90;;;;;;;;;;4977805;28;20492;-73
2021/12/06 08:13:10;;;;;;;118.18;47.42;;;;;;;;;;4977880;28;20018;-73
2021/12/06 08:15:36;;;;;;;121.85;49.10;;;;;;;;;;4987542;28;20506;-73
2021/12/06 08:18:03;;;;;;;120.35;47.88;;;;;;;;;;4977911;28;20089;-73
2021/12/06 08:20:29;;;;;;;120.72;49.38;;;;;;;;;;4976118;28;20031;-73
2021/12/06 08:22:55;;;;;;;129.23;51.08;;;;;;;;;;4981516;28;20026;-73
2021/12/06 08:25:21;;;;;;;132.45;50.83;;;;;;;;;;4961281;28;20042;-73
2021/12/06 08:27:48;;;;;;;117.47;48.60;;;;;;;;;;4986819;28;20069;-73
2021/12/06 08:30:16;;;;;;;125.00;49.80;;;;;;;;;;4984984;28;20034;-73
2021/12/06 08:32:42;;;;;;;125.68;50.78;;;;;;;;;;4975628;28;20120;-73
2021/12/06 08:35:08;;;;;;;128.55;51.88;;;;;;;;;;4978065;28;20134;-73
2021/12/06 08:37:35;;;;;;;136.95;54.58;;;;;;;;;;4974053;28;20022;-73
2021/12/06 08:40:01;;;;;;;131.15;50.17;;;;;;;;;;4988768;28;20030;-73
2021/12/06 08:42:27;;;;;;;133.02;53.50;;;;;;;;;;4988375;28;20038;-73
2021/12/06 08:44:53;;;;;;;129.90;52.22;;;;;;;;;;4974066;28;20066;-73
2021/12/06 08:47:19;;;;;;;140.60;52.03;;;;;;;;;;4964510;28;20377;-73
2021/12/06 08:49:45;;;;;;;144.20;53.22;;;;;;;;;;4992878;28;20042;-72
2021/12/06 08:52:14;;;;;;;134.85;52.88;;;;;;;;;;4981431;28;20029;-71
2021/12/06 08:54:41;;;;;;;127.57;49.50;;;;;;;;;;4982864;28;20023;-73
2021/12/06 08:57:08;;;;;;;127.10;51.47;;;;;;;;;;4976316;28;20034;-71
2021/12/06 08:59:34;;;;;;;129.25;55.20;;;;;;;;;;4986118;28;20084;-72
2021/12/06 09:02:00;;;;;;;126.05;50.63;;;;;;;;;;4976391;28;20477;-72
2021/12/06 09:04:27;;;;;;;123.05;50.30;;;;;;;;;;4971905;28;20027;-73
2021/12/06 09:06:55;;;;;;;124.88;51.85;;;;;;;;;;4971992;28;20092;-72
2021/12/06 09:09:22;;;;;;;119.90;50.20;;;;;;;;;;4972144;28;20069;-72
2021/12/06 09:11:48;;;;;;;122.90;51.35;;;;;;;;;;4976434;28;20034;-72
2021/12/06 09:14:15;;;;;;;120.35;51.25;;;;;;;;;;4973619;28;20023;-72
2021/12/06 09:16:41;;;;;;;123.25;53.72;;;;;;;;;;4967663;28;20027;-72
2021/12/06 09:19:08;;;;;;;125.22;53.05;;;;;;;;;;4972182;28;20085;-72
2021/12/06 09:21:37;;;;;;;122.22;52.80;;;;;;;;;;4973077;28;20038;-72
2021/12/06 09:24:04;;;;;;;129.70;52.58;;;;;;;;;;4985124;28;20026;-72
2021/12/06 09:26:30;;;;;;;124.68;54.47;;;;;;;;;;4975735;28;20084;-71
2021/12/06 09:28:56;;;;;;;125.63;50.67;;;;;;;;;;4980841;28;20030;-72
2021/12/06 09:31:22;;;;;;;126.88;53.13;;;;;;;;;;4976738;28;20059;-72
2021/12/06 09:33:48;;;;;;;135.77;54.60;;;;;;;;;;4979264;28;20049;-72
2021/12/06 09:36:15;;;;;;;126.38;54.33;;;;;;;;;;4984636;28;20382;-71
2021/12/06 09:38:42;;;;;;;137.10;55.30;;;;;;;;;;4981195;28;20108;-72
2021/12/06 09:41:10;;;;;;;148.95;59.42;;;;;;;;;;4981053;28;20742;-73
2021/12/06 09:43:39;;;;;;;149.18;58.85;;;;;;;;;;4978909;28;20562;-73
2021/12/06 09:46:06;;;;;;;151.10;60.10;;;;;;;;;;4972801;28;20520;-72
2021/12/06 09:48:32;;;;;;;159.88;63.20;;;;;;;;;;4979084;28;20038;-72
2021/12/06 09:51:00;;;;;;;158.02;64.07;;;;;;;;;;4971768;28;20050;-72
2021/12/06 09:53:27;;;;;;;158.70;64.63;;;;;;;;;;4972728;28;20026;-72
2021/12/06 09:55:55;;;;;;;160.40;65.05;;;;;;;;;;4982243;28;20031;-73
2021/12/06 09:58:22;;;;;;;173.27;68.35;;;;;;;;;;4975291;28;20415;-73
2021/12/06 10:00:53;;;;;;;162.60;67.28;;;;;;;;;;4977892;28;20027;-73
2021/12/06 10:03:23;;;;;;;161.90;66.53;;;;;;;;;;4979631;28;20034;-74
2021/12/06 10:05:50;;;;;;;167.77;65.90;;;;;;;;;;4982236;28;20042;-74
2021/12/06 10:08:16;;;;;;;173.45;70.00;;;;;;;;;;4978860;28;20094;-74
2021/12/06 10:10:42;;;;;;;179.98;69.50;;;;;;;;;;4993012;28;20066;-73
2021/12/06 10:13:08;;;;;;;184.77;70.03;;;;;;;;;;4974787;28;20074;-73
2021/12/06 10:15:36;;;;;;;196.85;73.18;;;;;;;;;;4991071;28;20023;-73
2021/12/06 10:18:03;;;;;;;193.23;72.32;;;;;;;;;;4979833;28;20030;-73
2021/12/06 10:20:30;;;;;;;207.75;76.13;;;;;;;;;;4972068;28;20038;-72
2021/12/06 10:22:57;;;;;;;208.02;74.95;;;;;;;;;;4988739;28;20027;-72
2021/12/06 10:25:24;;;;;;;200.52;71.85;;;;;;;;;;4995623;28;20060;-72
2021/12/06 10:28:05;;;;;;;209.20;74.88;;;;;;;;;;5000893;28;20073;-73
2021/12/06 10:30:31;;;;;;;222.35;74.18;;;;;;;;;;4981778;28;20023;-72
2021/12/06 10:33:06;;;;;;;217.13;77.30;;;;;;;;;;4997938;28;20132;-72
2021/12/06 10:35:32;;;;;;;213.65;75.03;;;;;;;;;;4982048;28;20037;-72
2021/12/06 10:37:58;;;;;;;225.90;78.25;;;;;;;;;;4981788;28;20033;-72
2021/12/06 10:40:32;;;;;;;208.98;74.63;;;;;;;;;;4981435;28;20500;-72
2021/12/06 10:43:00;;;;;;;212.98;71.88;;;;;;;;;;4975669;28;20106;-71
2021/12/06 10:45:30;;;;;;;218.95;77.18;;;;;;;;;;4990469;28;20030;-73
2021/12/06 10:48:07;;;;;;;210.60;72.40;;;;;;;;;;4972172;28;20077;-73
2021/12/06 10:50:33;;;;;;;216.35;70.47;;;;;;;;;;4970990;28;20117;-72
2021/12/06 10:53:00;;;;;;;210.52;67.93;;;;;;;;;;4980413;28;20077;-74
2021/12/06 10:55:29;;;;;;;203.02;69.35;;;;;;;;;;4982583;28;20030;-73
2021/12/06 10:57:59;;;;;;;209.63;67.22;;;;;;;;;;4985362;28;20461;-72
2021/12/06 11:00:29;;;;;;;182.82;64.07;;;;;;;;;;4985409;28;20048;-73
2021/12/06 11:02:55;;;;;;;176.18;63.85;;;;;;;;;;4976292;28;20026;-73
2021/12/06 11:05:25;;;;;;;166.70;59.83;;;;;;;;;;4990153;28;20156;-72
2021/12/06 11:08:07;;;;;;;150.23;56.10;;;;;;;;;;4972367;28;20062;-73
2021/12/06 11:10:38;;;;;;;128.95;51.17;;;;;;;;;;4971936;28;20429;-73
2021/12/06 11:13:23;;;;;;;132.27;50.63;;;;;;;;;;4978244;28;20034;-72
2021/12/06 11:15:58;;;;;;;114.72;48.17;;;;;;;;;;4992008;28;20030;-73
2021/12/06 11:18:42;;;;;;;115.22;46.60;;;;;;;;;;4968649;28;20023;-73
2021/12/06 11:21:16;;;;;;;112.38;46.55;;;;;;;;;;4976557;28;20069;-73
2021/12/06 11:23:57;;;;;;;115.50;48.88;;;;;;;;;;4971846;28;20035;-72
2021/12/06 11:26:23;;;;;;;115.95;45.28;;;;;;;;;;4991089;28;20109;-72
2021/12/06 11:28:49;;;;;;;96.75;41.88;;;;;;;;;;4971802;28;20042;-72
2021/12/06 11:31:16;;;;;;;89.93;39.63;;;;;;;;;;4969667;28;20031;-72
2021/12/06 11:33:42;;;;;;;86.15;39.58;;;;;;;;;;4971235;28;20031;-72
2021/12/06 11:36:23;;;;;;;83.22;38.50;;;;;;;;;;4985968;28;20065;-73
2021/12/06 11:38:49;;;;;;;83.25;38.10;;;;;;;;;;4974401;28;20027;-72
2021/12/06 11:41:15;;;;;;;77.97;37.08;;;;;;;;;;4976679;28;20026;-72
2021/12/06 11:43:41;;;;;;;73.35;34.75;;;;;;;;;;4976472;28;20034;-73
2021/12/06 11:46:08;;;;;;;70.55;34.33;;;;;;;;;;4985909;28;20121;-72
2021/12/06 11:48:39;;;;;;;66.28;34.33;;;;;;;;;;4981108;28;20032;-73
2021/12/06 11:51:05;;;;;;;;;;;;;;;;;;4977975;28;20074;-73
2021/12/06 11:53:36;;;;;;;66.82;32.38;;;;;;;;;;4976946;28;19956;-73
2021/12/06 11:56:05;;;;;;;75.45;35.05;;;;;;;;;;4978738;28;20034;-73
2021/12/06 11:58:34;;;;;;;70.35;34.70;;;;;;;;;;4984660;28;20057;-73
2021/12/06 12:01:06;;;;;;;70.50;35.10;;;;;;;;;;4980527;28;20407;-72
2021/12/06 12:03:33;;;;;;;76.93;36.83;;;;;;;;;;4973616;28;20457;-73
2021/12/06 12:05:59;;;;;;;68.45;34.72;;;;;;;;;;4984587;28;20088;-74
2021/12/06 12:08:30;;;;;;;63.10;33.45;;;;;;;;;;4973874;28;20041;-73
2021/12/06 12:10:57;;;;;;;69.20;34.40;;;;;;;;;;4975935;28;20065;-73
2021/12/06 12:13:23;;;;;;;59.85;32.55;;;;;;;;;;4974756;28;20097;-73
2021/12/06 12:15:50;;;;;;;64.72;33.47;;;;;;;;;;4995076;28;20029;-73
2021/12/06 12:18:16;;;;;;;62.00;34.03;;;;;;;;;;4974612;28;20560;-72
2021/12/06 12:20:42;;;;;;;66.88;34.22;;;;;;;;;;4993661;28;20395;-73
2021/12/06 12:23:09;;;;;;;70.40;35.25;;;;;;;;;;4976823;28;20419;-73
2021/12/06 12:25:45;;;;;;;70.40;35.28;;;;;;;;;;4974887;28;20046;-73
2021/12/06 12:28:24;;;;;;;70.18;35.45;;;;;;;;;;4982525;28;20022;-73
2021/12/06 12:30:52;;;;;;;71.63;34.60;;;;;;;;;;4973876;28;20117;-72
2021/12/06 12:33:20;;;;;;;70.00;34.80;;;;;;;;;;4982751;28;20054;-73
2021/12/06 12:35:56;;;;;;;62.13;34.80;;;;;;;;;;4976787;28;20436;-73
2021/12/06 12:38:29;;;;;;;62.13;32.25;;;;;;;;;;4978692;28;20031;-72
2021/12/06 12:40:59;;;;;;;64.57;33.53;;;;;;;;;;4978602;28;20023;-74
2021/12/06 12:43:27;;;;;;;63.17;32.22;;;;;;;;;;4975405;28;20022;-73
2021/12/06 12:45:56;;;;;;;66.30;33.35;;;;;;;;;;4976328;28;20073;-73
2021/12/06 12:48:25;;;;;;;60.53;29.90;;;;;;;;;;4979203;28;20027;-72
2021/12/06 12:51:05;;;;;;;58.65;29.75;;;;;;;;;;4977400;28;20030;-73
2021/12/06 12:54:10;;;;;;;56.45;28.55;;;;;;;;;;4979371;28;20031;-72
2021/12/06 12:56:41;;;;;;;56.95;27.67;;;;;;;;;;4966194;28;20077;-73
2021/12/06 12:59:36;;;;;;;57.20;28.08;;;;;;;;;;4970426;28;20035;-73
2021/12/06 13:02:19;;;;;;;54.10;27.33;;;;;;;;;;4977543;28;20058;-72
2021/12/06 13:04:59;;;;;;;53.35;26.50;;;;;;;;;;4990929;28;20034;-73
2021/12/06 13:07:36;;;;;;;50.75;24.85;;;;;;;;;;4983645;28;20062;-74
2021/12/06 13:10:21;;;;;;;48.72;24.30;;;;;;;;;;4998983;28;20155;-73
2021/12/06 13:12:58;;;;;;;51.97;24.75;;;;;;;;;;4981447;28;20080;-73
2021/12/06 13:15:34;;;;;;;47.53;24.38;;;;;;;;;;4980879;28;20054;-73
2021/12/06 13:18:00;;;;;;;51.30;24.35;;;;;;;;;;4987716;28;20404;-72
2021/12/06 13:20:27;;;;;;;50.85;25.55;;;;;;;;;;4981554;28;20068;-72
2021/12/06 13:22:54;;;;;;;51.97;25.13;;;;;;;;;;4995187;28;20668;-73
2021/12/06 13:25:22;;;;;;;53.05;25.77;;;;;;;;;;4983813;28;20031;-74
2021/12/06 13:27:54;;;;;;;58.10;28.13;;;;;;;;;;4972510;28;20074;-73
2021/12/06 13:30:26;;;;;;;55.03;25.65;;;;;;;;;;4983875;28;20247;-73
2021/12/06 13:32:54;;;;;;;52.88;25.38;;;;;;;;;;4968411;28;20038;-74
2021/12/06 13:35:28;;;;;;;49.97;24.50;;;;;;;;;;4974213;28;20022;-74
2021/12/06 13:38:13;;;;;;;50.85;24.80;;;;;;;;;;4980806;28;20077;-73
2021/12/06 13:40:43;;;;;;;52.30;26.05;;;;;;;;;;4980124;28;20031;-74
2021/12/06 13:43:16;;;;;;;59.03;27.33;;;;;;;;;;4981854;28;20448;-74
2021/12/06 13:45:47;;;;;;;53.00;25.20;;;;;;;;;;4998787;28;20164;-73
2021/12/06 13:48:19;;;;;;;50.65;24.38;;;;;;;;;;4975740;28;20058;-73
2021/12/06 13:50:46;;;;;;;47.90;23.42;;;;;;;;;;4992287;28;20042;-73
2021/12/06 13:53:32;;;;;;;51.08;24.30;;;;;;;;;;4968946;28;20089;-73
2021/12/06 13:56:02;;;;;;;56.58;25.02;;;;;;;;;;4976600;28;20030;-74
2021/12/06 13:58:28;;;;;;;61.70;25.10;;;;;;;;;;4979419;28;20022;-73
2021/12/06 14:00:56;;;;;;;53.08;23.50;;;;;;;;;;4979338;28;20030;-73
2021/12/06 14:03:36;;;;;;;54.17;25.00;;;;;;;;;;4977504;28;20023;-72
2021/12/06 14:06:07;;;;;;;48.72;23.52;;;;;;;;;;4998270;28;20129;-72
2021/12/06 14:08:34;;;;;;;52.33;25.15;;;;;;;;;;5004233;28;20468;-72
2021/12/06 14:11:00;;;;;;;50.05;24.02;;;;;;;;;;4997742;28;20038;-73
2021/12/06 14:13:27;;;;;;;58.92;26.23;;;;;;;;;;4979444;28;20034;-73
2021/12/06 14:15:55;;;;;;;66.57;28.30;;;;;;;;;;4984310;28;20030;-74
2021/12/06 14:18:25;;;;;;;63.63;27.58;;;;;;;;;;4978235;28;20496;-75
2021/12/06 14:20:56;;;;;;;67.10;29.42;;;;;;;;;;4986840;28;20492;-74
2021/12/06 14:23:24;;;;;;;66.63;29.95;;;;;;;;;;4977751;28;20511;-74
2021/12/06 14:25:52;;;;;;;74.22;31.27;;;;;;;;;;4979569;28;20030;-74
2021/12/06 14:28:20;;;;;;;71.68;32.30;;;;;;;;;;4979551;28;20104;-73
2021/12/06 14:30:47;;;;;;;75.60;32.45;;;;;;;;;;4981767;28;20035;-73
2021/12/06 14:33:13;;;;;;;74.82;33.63;;;;;;;;;;4984514;28;20022;-74